Time;durP1;ratioP1;P1;durP2;ratioP2;P2;SDS_P1;SDS_P2;PMS_P1;PMS_P2;Temp;Humidity;BMP_temperature;BMP_pressure;BME280_temperature;BME280_humidity;BME280_pressure;Samples;Min_cycle;Max_cycle;Signal;HPM_P1;HPM_P2
2022/09/30 00:00:32;;;;;;;9.00;7.17;;;9.70;99.90;;;;;;5114132;28;20454;-54
2022/09/30 00:03:01;;;;;;;9.90;6.33;;;9.80;99.90;;;;;;5113638;28;21021;-54
2022/09/30 00:05:28;;;;;;;6.93;6.20;;;9.90;99.90;;;;;;5113852;28;20502;-55
2022/09/30 00:07:55;;;;;;;9.07;6.80;;;10.00;99.90;;;;;;5114005;28;20446;-54
2022/09/30 00:10:23;;;;;;;9.07;7.47;;;10.10;99.90;;;;;;5113570;28;20451;-54
2022/09/30 00:12:52;;;;;;;9.53;6.60;;;10.10;99.90;;;;;;5113782;28;20469;-54
2022/09/30 00:15:20;;;;;;;8.90;7.13;;;10.10;99.90;;;;;;5113658;28;20447;-54
2022/09/30 00:17:47;;;;;;;9.57;6.63;;;10.00;99.90;;;;;;5113446;28;20451;-54
2022/09/30 00:20:16;;;;;;;9.23;7.13;;;9.90;99.90;;;;;;5113763;28;20446;-54
2022/09/30 00:22:43;;;;;;;10.40;7.20;;;9.90;99.90;;;;;;5113830;28;20474;-54
2022/09/30 00:25:11;;;;;;;8.90;6.90;;;9.90;99.90;;;;;;5113346;28;20454;-55
2022/09/30 00:27:38;;;;;;;12.00;7.37;;;10.10;99.90;;;;;;5113784;28;20445;-55
2022/09/30 00:30:06;;;;;;;10.23;7.10;;;10.20;99.90;;;;;;5113646;28;20435;-55
2022/09/30 00:32:33;;;;;;;8.43;7.10;;;10.30;99.90;;;;;;5113517;28;20492;-55
2022/09/30 00:35:00;;;;;;;8.10;6.03;;;10.30;99.90;;;;;;5113676;28;20449;-55
2022/09/30 00:37:30;;;;;;;9.30;7.20;;;10.20;99.90;;;;;;5113739;28;20495;-54
2022/09/30 00:39:57;;;;;;;6.80;6.10;;;10.10;99.90;;;;;;5113678;28;20481;-55
2022/09/30 00:42:25;;;;;;;7.50;5.93;;;10.10;99.90;;;;;;5113504;28;20826;-54
2022/09/30 00:44:54;;;;;;;8.37;7.00;;;10.10;99.90;;;;;;5113221;28;20957;-55
2022/09/30 00:47:55;;;;;;;6.63;5.93;;;10.00;99.90;;;;;;5113255;28;20478;-54
2022/09/30 00:50:37;;;;;;;9.33;6.90;;;10.10;99.90;;;;;;5113014;28;20557;-55
2022/09/30 00:53:11;;;;;;;7.03;6.33;;;10.10;99.90;;;;;;5117680;28;20470;-54
2022/09/30 00:55:46;;;;;;;6.73;6.13;;;10.10;99.90;;;;;;5117347;28;20433;-55
2022/09/30 00:58:19;;;;;;;6.00;5.40;;;10.10;99.90;;;;;;5117235;28;20475;-55
2022/09/30 01:00:47;;;;;;;9.17;7.03;;;10.10;99.90;;;;;;5117474;28;20462;-55
2022/09/30 01:03:14;;;;;;;8.47;6.43;;;10.10;99.90;;;;;;5116953;28;20470;-54
2022/09/30 01:05:41;;;;;;;9.63;6.47;;;10.10;99.90;;;;;;5117375;28;20469;-54
2022/09/30 01:08:11;;;;;;;7.93;7.23;;;10.20;99.90;;;;;;5117206;28;20442;-54
2022/09/30 01:10:38;;;;;;;9.80;6.80;;;10.20;99.90;;;;;;5117180;28;20438;-54
2022/09/30 01:13:06;;;;;;;7.63;6.80;;;10.30;99.90;;;;;;5117227;28;20566;-54
2022/09/30 01:15:51;;;;;;;8.30;6.77;;;10.40;99.90;;;;;;5117080;28;20449;-54
2022/09/30 01:18:28;;;;;;;9.33;7.43;;;10.40;99.90;;;;;;5116798;28;20427;-55
2022/09/30 01:21:23;;;;;;;9.90;6.10;;;10.50;99.90;;;;;;5117021;28;20882;-55
2022/09/30 01:24:12;;;;;;;8.97;5.87;;;10.50;99.90;;;;;;5116771;28;20422;-55
2022/09/30 01:27:12;;;;;;;8.90;5.97;;;10.60;99.90;;;;;;5116607;28;20462;-54
2022/09/30 01:30:16;;;;;;;6.43;5.83;;;10.50;99.90;;;;;;5112419;28;21011;-55
2022/09/30 01:33:17;;;;;;;6.63;6.03;;;10.60;99.90;;;;;;5109887;28;20509;-55
2022/09/30 01:36:01;;;;;;;10.00;7.73;;;10.60;99.90;;;;;;5072684;28;20792;-55
2022/09/30 01:38:30;;;;;;;7.90;6.50;;;10.60;99.90;;;;;;5116730;28;20445;-54
2022/09/30 01:41:05;;;;;;;7.77;6.20;;;10.50;99.90;;;;;;5116558;28;20446;-54
2022/09/30 01:43:43;;;;;;;10.07;5.20;;;10.40;99.90;;;;;;5116349;28;20876;-54
2022/09/30 01:46:19;;;;;;;8.00;6.53;;;10.40;99.90;;;;;;5116317;28;20824;-54
2022/09/30 01:48:56;;;;;;;8.53;7.43;;;10.50;99.90;;;;;;5116679;28;20426;-54
2022/09/30 01:51:32;;;;;;;7.73;6.17;;;10.60;99.90;;;;;;5075407;28;20464;-54
2022/09/30 01:54:05;;;;;;;8.47;6.17;;;10.60;99.90;;;;;;5075520;28;20515;-55
2022/09/30 01:56:38;;;;;;;8.27;7.10;;;10.50;99.90;;;;;;5075788;28;20417;-54
2022/09/30 01:59:10;;;;;;;9.80;6.87;;;10.50;99.90;;;;;;5075843;28;20420;-54
2022/09/30 02:01:41;;;;;;;6.70;5.77;;;10.50;99.90;;;;;;5075552;28;20981;-55
2022/09/30 02:04:15;;;;;;;7.13;6.40;;;10.50;99.90;;;;;;5074445;28;20432;-54
2022/09/30 02:06:49;;;;;;;7.07;6.33;;;10.50;99.90;;;;;;5075216;28;21032;-54
2022/09/30 02:09:22;;;;;;;6.43;5.83;;;10.50;99.90;;;;;;5075200;28;20911;-55
2022/09/30 02:11:49;;;;;;;7.73;6.10;;;10.50;99.90;;;;;;5075543;28;20468;-55
2022/09/30 02:14:23;;;;;;;8.63;6.10;;;10.50;99.90;;;;;;5075105;28;20551;-55
2022/09/30 02:16:58;;;;;;;6.70;5.97;;;10.50;99.90;;;;;;5075046;28;20902;-54
2022/09/30 02:19:33;;;;;;;6.33;5.73;;;10.50;99.90;;;;;;5075092;28;20440;-54
2022/09/30 02:22:06;;;;;;;10.20;7.80;;;10.60;99.90;;;;;;5075078;28;20470;-54
2022/09/30 02:24:36;;;;;;;10.97;6.10;;;10.50;99.90;;;;;;5075389;28;20453;-54
2022/09/30 02:27:06;;;;;;;14.30;6.63;;;10.40;99.90;;;;;;5075155;28;20807;-55
2022/09/30 02:29:37;;;;;;;7.57;6.23;;;10.40;99.90;;;;;;5075012;28;20437;-55
2022/09/30 02:32:10;;;;;;;7.40;6.70;;;10.40;99.90;;;;;;5074904;28;20465;-54
2022/09/30 02:34:40;;;;;;;7.47;6.77;;;10.40;99.90;;;;;;5075112;28;20433;-54
2022/09/30 02:37:14;;;;;;;7.43;6.73;;;10.40;99.90;;;;;;5074926;28;20456;-55
2022/09/30 02:39:47;;;;;;;7.40;6.70;;;10.40;99.90;;;;;;5074731;28;20428;-54
2022/09/30 02:42:19;;;;;;;7.50;6.30;;;10.40;99.90;;;;;;5074845;28;20472;-54
2022/09/30 02:44:47;;;;;;;7.10;6.40;;;10.20;99.90;;;;;;5074945;28;20435;-54
2022/09/30 02:47:18;;;;;;;7.13;6.27;;;10.10;99.90;;;;;;5074720;28;20488;-54
2022/09/30 02:49:55;;;;;;;9.70;6.60;;;9.90;99.90;;;;;;5087703;28;20481;-55
2022/09/30 02:52:27;;;;;;;7.50;6.60;;;9.90;99.90;;;;;;5114940;28;20576;-54
2022/09/30 02:55:10;;;;;;;11.83;6.20;;;9.90;99.90;;;;;;5115417;28;20423;-54
2022/09/30 02:57:46;;;;;;;9.70;6.30;;;10.00;99.90;;;;;;5115278;28;20431;-54
2022/09/30 03:00:13;;;;;;;11.00;7.77;;;10.10;99.90;;;;;;5115059;28;20942;-54
2022/09/30 03:02:40;;;;;;;12.00;8.67;;;10.20;99.90;;;;;;5114969;28;20494;-54
2022/09/30 03:05:10;;;;;;;16.30;8.03;;;10.10;99.90;;;;;;5114952;28;20465;-54
2022/09/30 03:07:38;;;;;;;13.50;8.90;;;10.00;99.90;;;;;;5114992;28;20481;-54
2022/09/30 03:10:13;;;;;;;9.13;8.20;;;9.90;99.90;;;;;;5114942;28;20557;-54
2022/09/30 03:12:48;;;;;;;9.77;8.57;;;10.00;99.90;;;;;;5114529;28;20967;-54
2022/09/30 03:15:30;;;;;;;11.40;8.83;;;10.00;99.90;;;;;;5114113;28;20431;-54
2022/09/30 03:18:17;;;;;;;9.80;8.80;;;10.10;99.90;;;;;;5114485;28;20423;-54
2022/09/30 03:21:00;;;;;;;14.30;9.00;;;9.90;99.90;;;;;;5114350;28;20473;-54
2022/09/30 03:24:01;;;;;;;9.27;7.30;;;9.90;99.90;;;;;;5114718;28;20509;-54
2022/09/30 03:26:37;;;;;;;12.00;7.73;;;9.80;99.90;;;;;;5114527;28;20533;-54
2022/09/30 03:29:13;;;;;;;10.57;7.83;;;9.70;99.90;;;;;;5114188;28;20892;-54
2022/09/30 03:31:50;;;;;;;9.30;8.30;;;9.70;99.90;;;;;;5114748;28;20968;-54
2022/09/30 03:34:26;;;;;;;9.40;6.97;;;9.60;99.90;;;;;;5114606;28;20774;-54
2022/09/30 03:37:02;;;;;;;8.23;6.77;;;9.60;99.90;;;;;;5114600;28;20881;-54
2022/09/30 03:39:36;;;;;;;10.03;7.23;;;9.60;99.90;;;;;;5114066;28;20435;-54
2022/09/30 03:42:10;;;;;;;9.33;7.63;;;9.60;99.90;;;;;;5114242;28;20469;-54
2022/09/30 03:44:44;;;;;;;11.90;8.37;;;9.50;99.90;;;;;;5114167;28;20460;-54
2022/09/30 03:47:14;;;;;;;10.63;8.33;;;9.50;99.90;;;;;;5114377;28;20462;-54
2022/09/30 03:49:46;;;;;;;11.73;8.73;;;9.50;99.90;;;;;;5113960;28;20557;-54
2022/09/30 03:52:16;;;;;;;9.73;8.83;;;9.50;99.90;;;;;;5113824;28;20469;-54
2022/09/30 03:54:49;;;;;;;9.83;8.83;;;9.50;99.90;;;;;;5114135;28;20474;-54
2022/09/30 03:57:16;;;;;;;9.37;7.73;;;9.60;99.90;;;;;;5114203;28;20454;-54
2022/09/30 03:59:43;;;;;;;10.93;9.27;;;9.70;99.90;;;;;;5113724;28;20447;-54
2022/09/30 04:02:12;;;;;;;11.53;7.30;;;9.70;99.90;;;;;;5113687;28;20470;-54
2022/09/30 04:04:40;;;;;;;10.90;8.90;;;9.70;99.90;;;;;;5114117;28;20873;-54
2022/09/30 04:07:07;;;;;;;11.43;8.47;;;9.80;99.90;;;;;;5113900;28;20482;-54
2022/09/30 04:09:36;;;;;;;10.57;8.37;;;9.80;99.90;;;;;;5113833;28;20452;-54
2022/09/30 04:12:04;;;;;;;12.13;9.10;;;9.80;99.90;;;;;;5113505;28;20501;-54
2022/09/30 04:14:32;;;;;;;12.73;9.20;;;9.70;99.90;;;;;;5113679;28;20446;-54
2022/09/30 04:16:59;;;;;;;9.27;8.10;;;9.80;99.90;;;;;;5113899;28;20545;-54
2022/09/30 04:19:26;;;;;;;10.00;7.73;;;9.80;99.90;;;;;;5113578;28;20807;-54
2022/09/30 04:21:54;;;;;;;14.27;8.37;;;9.70;99.90;;;;;;5113720;28;20557;-54
2022/09/30 04:24:21;;;;;;;9.87;8.73;;;9.80;99.90;;;;;;5113383;28;20503;-54
2022/09/30 04:26:50;;;;;;;9.07;8.10;;;9.80;99.90;;;;;;5112700;28;20482;-54
2022/09/30 04:29:18;;;;;;;17.83;8.50;;;9.80;99.90;;;;;;5113738;28;20529;-54
2022/09/30 04:31:45;;;;;;;9.17;7.23;;;9.90;99.90;;;;;;5113705;28;20474;-54
2022/09/30 04:34:12;;;;;;;9.77;8.00;;;9.80;99.90;;;;;;5113558;28;20499;-54
2022/09/30 04:36:39;;;;;;;11.37;8.33;;;9.80;99.90;;;;;;5113388;28;20838;-54
2022/09/30 04:39:07;;;;;;;9.17;8.00;;;9.80;99.90;;;;;;5113235;28;20447;-54
2022/09/30 04:41:34;;;;;;;8.80;7.17;;;9.80;99.90;;;;;;5113413;28;20557;-54
2022/09/30 04:44:05;;;;;;;12.20;7.70;;;9.80;99.90;;;;;;5113596;28;20525;-54
2022/09/30 04:46:35;;;;;;;10.73;8.40;;;9.70;99.90;;;;;;5113697;28;20431;-54
2022/09/30 04:49:03;;;;;;;8.63;7.80;;;9.60;99.90;;;;;;5113292;28;20444;-54
2022/09/30 04:51:30;;;;;;;16.83;7.87;;;9.60;99.90;;;;;;5113280;28;20466;-54
2022/09/30 04:53:57;;;;;;;11.50;8.40;;;9.60;99.90;;;;;;5113195;28;20449;-54
2022/09/30 04:56:25;;;;;;;10.30;9.23;;;9.60;99.90;;;;;;5112987;28;20952;-54
2022/09/30 04:58:53;;;;;;;9.30;7.60;;;9.60;99.90;;;;;;5113063;28;20442;-55
2022/09/30 05:01:21;;;;;;;10.33;8.67;;;9.60;99.90;;;;;;5112970;28;20519;-55
2022/09/30 05:03:49;;;;;;;13.83;8.67;;;9.50;99.90;;;;;;5113418;28;20456;-55
2022/09/30 05:06:16;;;;;;;9.30;8.30;;;9.40;99.90;;;;;;5113376;28;20446;-55
2022/09/30 05:08:44;;;;;;;11.77;9.20;;;9.40;99.90;;;;;;5113367;28;20510;-54
2022/09/30 05:11:16;;;;;;;11.50;9.10;;;9.30;99.90;;;;;;5113112;28;20534;-55
2022/09/30 05:13:44;;;;;;;14.07;9.73;;;9.20;99.90;;;;;;5112976;28;20434;-55
2022/09/30 05:16:12;;;;;;;16.10;9.60;;;9.10;99.90;;;;;;5113327;28;20438;-55
2022/09/30 05:18:44;;;;;;;10.20;8.30;;;9.00;99.90;;;;;;5112964;28;20442;-57
2022/09/30 05:21:12;;;;;;;11.13;8.83;;;8.90;99.90;;;;;;5112428;28;20513;-54
2022/09/30 05:23:39;;;;;;;9.50;8.60;;;8.90;99.90;;;;;;5112628;28;20475;-55
2022/09/30 05:26:06;;;;;;;12.63;9.57;;;8.90;99.90;;;;;;5112732;28;20442;-55
2022/09/30 05:28:34;;;;;;;17.33;9.37;;;9.00;99.90;;;;;;5112622;28;20473;-54
2022/09/30 05:31:05;;;;;;;11.83;8.83;;;9.10;99.90;;;;;;5112982;28;20454;-55
2022/09/30 05:33:33;;;;;;;11.43;9.07;;;9.10;99.90;;;;;;5112705;28;20434;-54
2022/09/30 05:36:04;;;;;;;10.50;9.40;;;9.10;99.90;;;;;;5112916;28;20472;-54
2022/09/30 05:38:31;;;;;;;11.53;9.03;;;9.20;99.90;;;;;;5116267;28;20423;-54
2022/09/30 05:40:58;;;;;;;13.43;8.60;;;9.20;99.90;;;;;;5116101;28;20442;-54
2022/09/30 05:43:26;;;;;;;11.30;10.20;;;9.20;99.90;;;;;;5116176;28;20937;-54
2022/09/30 05:45:54;;;;;;;12.10;10.73;;;9.20;99.90;;;;;;5115866;28;20929;-54
2022/09/30 05:48:22;;;;;;;15.67;11.13;;;9.20;99.90;;;;;;5116136;28;20484;-54
2022/09/30 05:50:49;;;;;;;15.10;9.27;;;9.10;99.90;;;;;;5115832;28;20992;-54
2022/09/30 05:53:18;;;;;;;14.77;10.47;;;9.10;99.90;;;;;;5115666;28;20553;-54
2022/09/30 05:55:47;;;;;;;13.77;10.70;;;9.20;99.90;;;;;;5116216;28;20551;-54
2022/09/30 05:58:14;;;;;;;17.33;9.43;;;9.20;99.90;;;;;;5116163;28;20435;-54
2022/09/30 06:00:42;;;;;;;12.17;10.87;;;9.20;99.90;;;;;;5115700;28;21062;-54
2022/09/30 06:03:09;;;;;;;11.60;9.70;;;9.20;99.90;;;;;;5115582;28;20499;-54
2022/09/30 06:05:37;;;;;;;14.03;9.70;;;9.20;99.90;;;;;;5116004;28;20449;-54
2022/09/30 06:08:05;;;;;;;12.77;11.10;;;9.10;99.90;;;;;;5115926;28;20509;-54
2022/09/30 06:10:35;;;;;;;13.43;11.47;;;9.20;99.90;;;;;;5115541;28;20542;-54
2022/09/30 06:13:03;;;;;;;21.43;12.07;;;9.30;99.90;;;;;;5115437;28;20469;-54
2022/09/30 06:15:30;;;;;;;16.77;11.97;;;9.30;99.90;;;;;;5115335;28;20465;-54
2022/09/30 06:17:58;;;;;;;15.27;12.10;;;9.30;99.90;;;;;;5115283;28;20534;-54
2022/09/30 06:20:25;;;;;;;13.67;10.17;;;9.30;99.90;;;;;;5115134;28;20495;-54
2022/09/30 06:22:53;;;;;;;16.73;11.30;;;9.30;99.90;;;;;;5115193;28;20473;-54
2022/09/30 06:25:21;;;;;;;15.43;12.20;;;9.30;99.90;;;;;;5115456;28;20486;-54
2022/09/30 06:27:49;;;;;;;16.73;13.77;;;9.30;99.90;;;;;;5115167;28;21016;-54
2022/09/30 06:30:17;;;;;;;16.23;14.63;;;9.30;99.90;;;;;;5115792;28;20902;-54
2022/09/30 06:32:44;;;;;;;19.80;13.23;;;9.30;99.90;;;;;;5115331;28;20524;-54
2022/09/30 06:35:11;;;;;;;17.77;15.20;;;9.30;99.90;;;;;;5115267;28;20906;-54
2022/09/30 06:37:40;;;;;;;15.50;13.20;;;9.40;99.90;;;;;;5115354;28;20787;-54
2022/09/30 06:40:09;;;;;;;13.23;11.93;;;9.40;99.90;;;;;;5115157;28;20454;-54
2022/09/30 06:42:36;;;;;;;15.03;13.43;;;9.50;99.90;;;;;;5114850;28;20477;-54
2022/09/30 06:45:05;;;;;;;13.37;11.97;;;9.50;99.90;;;;;;5115017;28;20541;-54
2022/09/30 06:47:32;;;;;;;14.13;12.60;;;9.60;99.90;;;;;;5115258;28;20547;-54
2022/09/30 06:49:59;;;;;;;15.83;12.03;;;9.60;99.90;;;;;;5113884;28;20589;-54
2022/09/30 06:52:26;;;;;;;17.33;13.60;;;9.60;99.90;;;;;;5115046;28;20498;-54
2022/09/30 06:54:55;;;;;;;16.23;12.57;;;9.80;99.90;;;;;;5114769;28;20442;-54
2022/09/30 06:57:23;;;;;;;15.03;13.00;;;9.90;99.90;;;;;;5114991;28;20446;-54
2022/09/30 06:59:51;;;;;;;17.50;14.20;;;10.00;99.90;;;;;;5114816;27;20466;-54
2022/09/30 07:02:20;;;;;;;15.30;12.53;;;10.00;99.90;;;;;;5114817;28;20463;-54
2022/09/30 07:04:48;;;;;;;18.80;14.20;;;10.10;99.90;;;;;;5114842;28;20721;-54
2022/09/30 07:07:15;;;;;;;18.40;14.33;;;10.10;99.90;;;;;;5114719;28;20959;-54
2022/09/30 07:09:43;;;;;;;16.03;13.53;;;10.20;99.90;;;;;;5114902;28;20485;-54
2022/09/30 07:12:10;;;;;;;20.57;13.30;;;10.10;99.90;;;;;;5114313;28;20473;-54
2022/09/30 07:14:37;;;;;;;17.50;13.80;;;10.30;99.90;;;;;;5114667;28;20474;-54
2022/09/30 07:17:06;;;;;;;18.20;15.67;;;10.30;99.90;;;;;;5114452;28;20952;-54
2022/09/30 07:19:35;;;;;;;20.73;17.03;;;10.20;99.90;;;;;;5114268;28;20465;-54
2022/09/30 07:24:43;;;;;;;25.60;18.37;;;10.30;99.90;;;;;;5113994;28;20431;-53
2022/09/30 07:27:12;;;;;;;21.33;18.30;;;10.40;99.90;;;;;;5114282;28;20521;-54
2022/09/30 07:29:40;;;;;;;23.57;14.90;;;10.20;99.90;;;;;;5114252;28;20478;-54
2022/09/30 07:32:07;;;;;;;24.87;16.40;;;10.30;99.90;;;;;;5114072;28;20825;-53
2022/09/30 07:34:36;;;;;;;19.00;15.70;;;10.30;99.90;;;;;;5114177;28;20542;-53
2022/09/30 07:37:04;;;;;;;21.80;16.03;;;10.40;99.90;;;;;;5114082;28;20446;-56
2022/09/30 07:39:31;;;;;;;21.20;16.90;;;10.50;99.90;;;;;;5113983;28;20445;-53
2022/09/30 07:42:00;;;;;;;17.43;15.53;;;10.50;99.90;;;;;;5113642;28;20566;-56
2022/09/30 07:44:28;;;;;;;21.43;18.40;;;10.50;99.90;;;;;;5113614;28;20447;-54
2022/09/30 07:46:57;;;;;;;22.00;16.57;;;10.50;99.90;;;;;;5113804;28;20963;-57
2022/09/30 07:49:24;;;;;;;23.37;16.30;;;10.70;99.90;;;;;;5113687;28;20518;-54
2022/09/30 07:51:54;;;;;;;20.40;17.40;;;10.80;99.90;;;;;;5114208;28;20519;-54
2022/09/30 07:54:24;;;;;;;21.40;17.07;;;10.90;99.90;;;;;;5113846;28;20526;-54
2022/09/30 07:56:52;;;;;;;22.30;17.63;;;10.90;99.90;;;;;;5113480;28;20446;-54
2022/09/30 07:59:20;;;;;;;20.83;16.87;;;10.90;99.90;;;;;;5114030;28;20477;-54
2022/09/30 08:01:48;;;;;;;23.73;18.37;;;11.10;99.90;;;;;;5113592;28;20562;-54
2022/09/30 08:04:16;;;;;;;20.13;16.73;;;11.30;99.90;;;;;;5113648;28;20446;-54
2022/09/30 08:06:46;;;;;;;18.40;15.53;;;11.40;99.90;;;;;;5113352;28;20446;-54
2022/09/30 08:09:16;;;;;;;19.17;14.77;;;11.40;99.90;;;;;;5113406;28;20478;-54
2022/09/30 08:11:43;;;;;;;26.73;18.00;;;11.60;99.90;;;;;;5113643;28;20473;-54
2022/09/30 08:14:14;;;;;;;23.17;18.33;;;11.50;99.90;;;;;;5113548;28;20442;-54
2022/09/30 08:16:42;;;;;;;19.50;17.40;;;11.60;99.90;;;;;;5113669;28;20435;-55
2022/09/30 08:19:14;;;;;;;19.30;16.43;;;11.70;99.90;;;;;;5113294;28;20443;-54
2022/09/30 08:21:42;;;;;;;26.80;17.47;;;11.80;99.90;;;;;;5113099;28;20470;-54
2022/09/30 08:24:09;;;;;;;21.97;17.87;;;11.90;99.90;;;;;;5113472;28;20446;-55
2022/09/30 08:26:38;;;;;;;19.27;15.90;;;11.90;99.90;;;;;;5113568;28;20446;-55
2022/09/30 08:29:05;;;;;;;22.67;16.80;;;11.90;99.90;;;;;;5113401;28;20478;-54
2022/09/30 08:31:33;;;;;;;16.40;14.63;;;11.90;99.90;;;;;;5113172;28;20524;-54
2022/09/30 08:34:02;;;;;;;23.30;15.90;;;12.00;99.90;;;;;;5113635;28;20442;-55
2022/09/30 08:36:30;;;;;;;22.03;15.97;;;12.20;99.90;;;;;;5113416;28;20865;-55
2022/09/30 08:38:57;;;;;;;17.90;15.40;;;12.40;99.90;;;;;;5113276;28;20442;-54
2022/09/30 08:41:45;;;;;;;17.30;15.37;;;12.40;99.90;;;;;;5113043;28;20459;-55
2022/09/30 08:44:30;;;;;;;16.10;14.50;;;12.50;99.90;;;;;;5113493;28;20437;-55
2022/09/30 08:47:04;;;;;;;22.33;14.27;;;12.60;99.90;;;;;;5113227;28;20407;-55
2022/09/30 08:49:54;;;;;;;19.70;15.33;;;12.40;99.90;;;;;;5112825;28;20490;-55
2022/09/30 08:52:26;;;;;;;17.33;14.33;;;12.30;99.90;;;;;;5113342;28;20826;-55
2022/09/30 08:54:55;;;;;;;18.53;15.93;;;12.40;99.90;;;;;;5113209;28;20435;-55
2022/09/30 08:57:28;;;;;;;23.97;15.00;;;12.60;99.90;;;;;;5113466;28;20537;-55
2022/09/30 08:59:58;;;;;;;15.90;14.30;;;12.50;99.90;;;;;;5113000;28;20541;-54
2022/09/30 09:02:27;;;;;;;16.07;14.53;;;12.40;99.90;;;;;;5113501;28;20490;-55
2022/09/30 09:04:59;;;;;;;18.60;15.80;;;12.40;99.90;;;;;;5112861;28;20453;-55
2022/09/30 09:07:41;;;;;;;24.67;17.90;;;12.30;99.90;;;;;;5113053;28;20408;-55
2022/09/30 09:10:22;;;;;;;20.53;15.67;;;12.20;99.90;;;;;;5112941;28;20545;-55
2022/09/30 09:12:58;;;;;;;24.50;18.17;;;12.10;99.90;;;;;;5115163;28;20961;-55
2022/09/30 09:15:47;;;;;;;22.40;15.37;;;12.10;99.90;;;;;;5116779;28;20429;-54
2022/09/30 09:18:36;;;;;;;19.97;17.60;;;12.10;99.90;;;;;;5116857;28;20437;-54
2022/09/30 09:21:16;;;;;;;20.23;16.73;;;12.20;99.90;;;;;;5115003;28;20459;-55
2022/09/30 09:23:43;;;;;;;17.20;14.60;;;12.50;99.90;;;;;;5116885;28;20407;-55
2022/09/30 09:26:13;;;;;;;18.00;16.13;;;12.70;99.90;;;;;;5116681;28;20447;-55
2022/09/30 09:28:45;;;;;;;21.40;15.40;;;12.80;99.90;;;;;;5116423;28;20989;-55
2022/09/30 09:31:15;;;;;;;17.13;14.97;;;13.10;99.90;;;;;;5116723;28;20515;-55
2022/09/30 09:33:44;;;;;;;20.47;15.17;;;13.30;99.90;;;;;;5116518;27;20917;-55
2022/09/30 09:36:33;;;;;;;14.90;13.00;;;13.80;99.90;;;;;;5116271;28;20482;-55
2022/09/30 09:39:14;;;;;;;16.10;13.13;;;14.30;99.90;;;;;;5116490;28;20505;-55
2022/09/30 09:41:50;;;;;;;16.13;14.03;;;14.70;99.90;;;;;;5116561;28;20454;-55
2022/09/30 09:44:26;;;;;;;13.73;12.37;;;15.50;99.90;;;;;;5116521;28;20426;-55
2022/09/30 09:47:03;;;;;;;13.57;11.00;;;16.10;99.90;;;;;;5116232;28;20423;-55
2022/09/30 09:49:33;;;;;;;12.20;9.37;;;16.50;99.90;;;;;;5115890;28;20482;-55
2022/09/30 09:52:22;;;;;;;11.83;8.57;;;16.80;99.90;;;;;;5116155;28;20545;-55
2022/09/30 09:54:55;;;;;;;9.47;8.47;;;17.00;99.90;;;;;;5113671;28;20516;-55
2022/09/30 09:57:30;;;;;;;12.10;9.40;;;17.00;99.90;;;;;;5116112;28;20973;-55
2022/09/30 10:01:04;;;;;;;13.63;9.90;;;16.90;99.90;;;;;;5115978;28;20453;-55
2022/09/30 10:02:59;;;;;;;13.60;10.60;;;16.90;99.90;;;;;;5115615;28;20466;-55
2022/09/30 10:05:28;;;;;;;11.50;7.93;;;17.10;99.90;;;;;;5115663;28;20426;-55
2022/09/30 10:08:10;;;;;;;6.43;5.57;;;17.40;99.90;;;;;;5116044;28;20859;-55
2022/09/30 10:10:49;;;;;;;7.53;6.57;;;17.40;99.90;;;;;;5115634;28;20462;-55
2022/09/30 10:13:20;;;;;;;8.63;7.73;;;;;;;;;;5115601;28;20466;-55
2022/09/30 10:15:51;;;;;;;10.80;8.00;;;18.60;99.90;;;;;;5115660;28;20437;-55
2022/09/30 10:18:24;;;;;;;7.80;7.10;;;19.00;99.90;;;;;;5115870;27;20427;-55
2022/09/30 10:20:55;;;;;;;4.20;3.80;;;18.70;99.90;;;;;;5114583;28;20944;-55
2022/09/30 10:23:26;;;;;;;6.97;4.37;;;19.20;99.90;;;;;;5113095;28;20467;-55
2022/09/30 10:26:03;;;;;;;6.93;4.33;;;19.30;99.90;;;;;;5115185;28;20451;-55
2022/09/30 10:28:33;;;;;;;6.67;5.30;;;19.30;99.10;;;;;;5115584;28;20503;-55
2022/09/30 10:31:06;;;;;;;6.03;5.37;;;;;;;;;;5114873;28;20557;-55
2022/09/30 10:33:41;;;;;;;8.27;5.70;;;19.90;99.60;;;;;;5114835;27;20427;-55
2022/09/30 10:36:15;;;;;;;11.10;10.00;;;20.80;99.40;;;;;;5115209;28;20430;-55
2022/09/30 10:38:55;;;;;;;9.77;8.83;;;20.30;99.90;;;;;;5115142;28;20433;-56
2022/09/30 10:41:24;;;;;;;9.33;8.20;;;20.50;99.90;;;;;;5114729;28;20494;-56
2022/09/30 10:43:53;;;;;;;10.63;9.07;;;20.50;99.90;;;;;;5114564;28;20507;-55
2022/09/30 10:46:26;;;;;;;9.73;7.40;;;20.70;99.90;;;;;;5114418;28;20929;-55
2022/09/30 10:48:54;;;;;;;9.47;8.57;;;;;;;;;;5114859;28;20467;-55
2022/09/30 10:51:26;;;;;;;7.53;6.60;;;22.10;99.20;;;;;;5114337;28;20494;-55
2022/09/30 10:53:55;;;;;;;8.43;7.30;;;22.50;98.10;;;;;;5114400;28;20441;-55
2022/09/30 10:56:40;;;;;;;10.40;7.00;;;22.20;98.10;;;;;;5114845;28;20449;-55
2022/09/30 10:59:18;;;;;;;11.90;6.53;;;21.60;96.30;;;;;;5114456;28;20480;-55
2022/09/30 11:01:53;;;;;;;7.27;6.50;;;21.60;97.40;;;;;;5115117;28;20470;-55
2022/09/30 11:04:27;;;;;;;6.10;5.40;;;21.20;96.10;;;;;;5114563;28;20429;-56
2022/09/30 11:06:57;;;;;;;5.90;5.30;;;;;;;;;;5114681;28;20456;-55
2022/09/30 11:09:33;;;;;;;5.00;4.50;;;22.20;95.90;;;;;;5114040;28;20479;-56
2022/09/30 11:12:05;;;;;;;7.30;5.73;;;22.20;95.00;;;;;;5113988;28;20476;-56
2022/09/30 11:14:39;;;;;;;5.73;4.60;;;22.10;95.40;;;;;;5114402;28;20427;-55
2022/09/30 11:17:22;;;;;;;4.57;4.10;;;21.80;93.40;;;;;;5114583;28;20437;-56
2022/09/30 11:19:54;;;;;;;4.10;3.70;;;22.00;93.30;;;;;;5113917;28;21010;-56
2022/09/30 11:22:31;;;;;;;4.97;3.63;;;22.30;92.90;;;;;;5113543;28;20463;-55
2022/09/30 11:24:58;;;;;;;4.53;4.13;;;22.70;91.50;;;;;;5113706;28;20893;-56
2022/09/30 11:27:38;;;;;;;4.60;4.20;;;22.10;91.90;;;;;;5113988;28;20454;-55
2022/09/30 11:30:12;;;;;;;5.70;3.70;;;21.90;91.00;;;;;;5114062;28;20512;-55
2022/09/30 11:32:55;;;;;;;4.40;3.73;;;22.00;90.50;;;;;;5113709;28;20832;-55
2022/09/30 11:35:37;;;;;;;5.47;3.80;;;21.90;92.60;;;;;;5113144;28;20430;-55
2022/09/30 11:38:15;;;;;;;6.53;4.30;;;22.10;92.00;;;;;;5113956;28;20430;-56
2022/09/30 11:40:53;;;;;;;4.23;3.57;;;22.10;90.20;;;;;;5113574;28;20422;-56
2022/09/30 11:43:32;;;;;;;8.90;3.77;;;22.90;90.40;;;;;;5113409;28;20976;-55
2022/09/30 11:46:17;;;;;;;4.57;4.17;;;22.90;91.40;;;;;;5113829;28;20510;-56
2022/09/30 11:49:10;;;;;;;4.33;3.80;;;22.80;90.10;;;;;;5113384;28;20426;-55
2022/09/30 11:51:44;;;;;;;3.50;3.20;;;23.10;89.60;;;;;;5113075;28;20496;-56
2022/09/30 11:54:25;;;;;;;3.10;2.80;;;22.70;84.00;;;;;;5103725;28;20462;-55
2022/09/30 11:56:59;;;;;;;5.53;4.87;;;21.90;83.90;;;;;;5105908;28;20976;-56
2022/09/30 11:59:29;;;;;;;3.87;3.57;;;21.40;83.30;;;;;;5098069;28;20431;-60
2022/09/30 12:02:01;;;;;;;7.53;4.03;;;22.10;87.10;;;;;;5098214;28;20555;-57
2022/09/30 12:04:35;;;;;;;4.33;3.73;;;21.50;85.70;;;;;;5099305;28;20599;-59
2022/09/30 12:07:10;;;;;;;3.80;3.33;;;21.20;86.30;;;;;;5098968;28;20477;-57
2022/09/30 12:09:42;;;;;;;3.20;2.90;;;21.30;86.90;;;;;;5096384;28;20467;-61
2022/09/30 12:12:16;;;;;;;3.77;3.37;;;21.90;86.90;;;;;;5097077;28;20476;-60
2022/09/30 12:14:47;;;;;;;4.43;3.33;;;21.60;85.20;;;;;;5096884;28;21020;-57
2022/09/30 12:17:22;;;;;;;4.10;3.70;;;21.70;85.10;;;;;;5100610;28;20454;-58
2022/09/30 12:19:54;;;;;;;3.90;3.50;;;20.10;87.10;;;;;;5090897;28;20450;-54
2022/09/30 12:22:27;;;;;;;3.80;3.50;;;18.80;88.30;;;;;;5092376;28;20487;-54
2022/09/30 12:24:54;;;;;;;3.43;2.93;;;18.50;91.00;;;;;;5106821;28;20780;-51
2022/09/30 12:27:25;;;;;;;4.73;3.40;;;19.10;91.80;;;;;;5093530;28;20466;-55
2022/09/30 12:30:17;;;;;;;4.00;3.60;;;20.20;91.00;;;;;;5099424;28;20483;-51
2022/09/30 12:33:16;;;;;;;3.70;3.40;;;20.70;90.40;;;;;;5097378;28;21290;-49
2022/09/30 12:36:21;;;;;;;4.10;3.40;;;21.40;88.80;;;;;;5091881;28;20464;-56
2022/09/30 12:39:22;;;;;;;4.03;3.63;;;21.90;88.70;;;;;;5091100;28;20458;-55
2022/09/30 12:42:03;;;;;;;6.10;3.50;;;22.50;85.00;;;;;;5090852;28;20477;-53
2022/09/30 12:45:13;;;;;;;4.40;3.47;;;22.10;85.20;;;;;;5097013;28;20864;-58
2022/09/30 12:47:46;;;;;;;4.00;3.00;;;21.50;88.40;;;;;;5093861;28;20949;-55
2022/09/30 12:50:16;;;;;;;6.20;5.00;;;22.50;88.90;;;;;;5094485;28;20482;-56
2022/09/30 12:52:46;;;;;;;4.00;3.60;;;22.20;83.10;;;;;;5098050;28;20544;-56
2022/09/30 12:55:24;;;;;;;4.10;3.40;;;21.80;85.90;;;;;;5095718;28;21442;-55
2022/09/30 12:57:52;;;;;;;4.60;3.60;;;20.90;82.90;;;;;;5095322;28;20447;-58
2022/09/30 13:00:22;;;;;;;3.63;3.10;;;20.80;87.00;;;;;;5095904;28;20823;-55
2022/09/30 13:02:55;;;;;;;2.97;2.77;;;20.50;85.40;;;;;;5108477;28;20474;-54
2022/09/30 13:05:56;;;;;;;4.20;3.80;;;20.40;86.10;;;;;;5116144;28;20431;-57
2022/09/30 13:09:02;;;;;;;6.27;3.00;;;20.20;85.70;;;;;;5101350;27;20958;-52
2022/09/30 13:11:35;;;;;;;3.50;3.20;;;19.70;88.40;;;;;;5061217;28;20482;-55
2022/09/30 13:14:24;;;;;;;4.63;3.10;;;19.20;86.30;;;;;;5112524;28;20499;-53